MET'MAP v2.0
soon released !

Expected late october,
this new version will be
more efficient, smarter,
and hosted on a brand new
server x3 powerfull...
...and still free !


Not compatible ?
Try the mobile version !

LOG IN : | Subscribe | Disclaimer | Who is Orbifly ? |
ICAO code :

TAF - EGNT Newcastle - 16 Feb 2020 19:39 UTC - Data Source NOAA   


- Airport Elevation : 266 ft
- IATA code : NCL
- No reported NOTAMs.


EGNT - Newcastle

Latest METAR recorded : 2015/08/11 07:50 EGNT 110750Z 27008KT 9999 FEW018 15/11 Q1018
TAF TAF EGNT
Valid from the 16 at 18:00 until the 17 at 18:00 UTC


161709Z 1618/1718 23017KT 9999 SCT025
BECMG 1618/1621 24020G30KT
TEMPO 1618/1619 6000 SHRA
PROB30
TEMPO 1618/1619 24025G40KT 3500 +SHRA SHRAGS BKN012
BECMG 1619/1622 24025G45KT
PROB30
TEMPO 1619/1706 6000 SHRA BKN014
BECMG 1703/1706 27025G45KT

Source NOAA
ATIS : +44 191 214 3400


MET'MAP, your aeronautical weather chart ! - Copyright ORBIFLY December 2007

Programming & Development : Alexandra Zaïnal
Co-Developer : Marc-Olivier Méhu
Technical & hardware support : Manuel Goepfert
Concept & Financing : Baudouin d'Aumeries